Flight Track Log - Related Links

Times and Time Zones

All times are in EDT time to prevent confusion due to time zone crossing. See the AWE1940 flight status page for this flight to view local times or setup timezone preferences in your user account.


Time Position Orientation Groundspeed Altitude Reporting Facility
EDT Latitude Longitude Course Direction KTS MPH feet Rate Location/Type
Thu 07:07:15 PM 26.6742 -81.7175 344° North 252 290 5,200  Level Miami Center
Thu 07:08:15 PM 26.7511 -81.7253 355° North 273 314 8,100 2,400 Climbing Miami Center
Thu 07:09:15 PM 26.8239 -81.7283 358° North 295 339 10,000 1,250 Climbing Miami Center
Thu 07:10:00 PM 27.1903 -81.7968 343° North  Level FlightAware Approximate
Thu 07:10:15 PM 26.9031 -81.7361 355° North 290 334 10,600  Level Miami Center
Thu 07:11:00 PM 27.2961 -81.8351 340° North  Level FlightAware Approximate
Thu 07:11:15 PM 27.0008 -81.7450 355° North 312 359 12,500  Level Miami Center
Thu 07:12:00 PM 27.4021 -81.8729 344° North  Level FlightAware Approximate
Thu 07:12:15 PM 27.0961 -81.7678 348° North 337 388 14,600  Level Miami Center
Thu 07:13:15 PM 27.1950 -81.8022 343° North 353 406 16,700 1,950 Climbing Miami Center
Thu 07:14:15 PM 27.3128 -81.8400 344° North 380 437 18,500 1,650 Climbing Miami Center
Thu 07:15:15 PM 27.4200 -81.8211 North 389 448 20,000 1,550 Climbing Miami Center
Thu 07:16:15 PM 27.5278 -81.7767 20° North 395 455 21,600 1,400 Climbing Miami Center
Thu 07:17:15 PM 27.6381 -81.7300 21° North 411 473 22,800 1,750 Climbing Miami Center
Thu 07:18:15 PM 27.7397 -81.6850 21° North 424 488 25,100 1,850 Climbing Miami Center
Thu 07:19:15 PM 27.8475 -81.6403 20° North 418 481 26,500 950 Climbing Miami Center
Thu 07:20:15 PM 27.9597 -81.5886 22° Northeast 418 481 27,000 1,100 Climbing Miami Center
Thu 07:21:15 PM 28.0800 -81.5489 16° North 424 488 28,700 1,244 Climbing Miami Center
Thu 07:23:28 PM 28.3594 -81.5103 North 441 507 31,000 715 Climbing Jacksonville Center
Thu 07:24:28 PM 28.4700 -81.4992 North 441 507 31,000  Level Jacksonville Center
Thu 07:25:28 PM 28.5908 -81.4833 North 441 507 31,000  Level Jacksonville Center
Thu 07:26:28 PM 28.7117 -81.4628 North 441 507 31,000  Level Jacksonville Center
Thu 07:27:28 PM 28.8325 -81.4517 North 441 507 31,000  Level Jacksonville Center
Thu 07:28:28 PM 28.9497 -81.4714 352° North 430 495 31,000  Level Jacksonville Center
Thu 07:29:28 PM 29.0650 -81.5100 344° North 424 488 31,000  Level Jacksonville Center
Thu 07:30:28 PM 29.1739 -81.5442 345° North 419 482 31,000  Level Jacksonville Center
Thu 07:31:28 PM 29.2953 -81.5878 343° North 414 476 31,000  Level Jacksonville Center
Thu 07:32:28 PM 29.4042 -81.6244 344° North 414 476 31,000  Level Jacksonville Center
Thu 07:33:28 PM 29.5172 -81.6611 344° North 409 471 31,000  Level Jacksonville Center
Thu 07:34:28 PM 29.6306 -81.6981 344° North 414 476 31,000  Level Jacksonville Center
Thu 07:35:28 PM 29.7436 -81.7347 344° North 419 482 31,000 50 Level Jacksonville Center
Thu 07:36:28 PM 29.8586 -81.7742 343° North 419 482 31,100  Climbing Jacksonville Center
Thu 07:37:28 PM 29.9717 -81.8136 343° North 419 482 31,000 -50 Descending Jacksonville Center
Thu 07:38:28 PM 30.0764 -81.8436 346° North 419 482 31,000  Level Jacksonville Center
Thu 07:39:28 PM 30.1872 -81.8833 343° North 419 482 31,000  Level Jacksonville Center
Thu 07:40:28 PM 30.3003 -81.9181 345° North 419 482 31,000  Level Jacksonville Center
Thu 07:41:28 PM 30.4156 -81.9531 345° North 419 482 31,000  Level Jacksonville Center
Thu 07:42:28 PM 30.5264 -81.9883 345° North 419 482 31,000  Level Jacksonville Center
Thu 07:43:28 PM 30.6394 -82.0283 343° North 419 482 31,000  Level Jacksonville Center
Thu 07:44:28 PM 30.7503 -82.0633 345° North 419 482 31,000  Level Jacksonville Center
Thu 07:45:28 PM 30.8653 -82.0939 347° North 419 482 31,000  Level Jacksonville Center
Thu 07:46:28 PM 30.9742 -82.1269 345° North 419 482 31,000  Level Jacksonville Center
Thu 07:47:28 PM 31.0931 -82.1356 356° North 419 482 31,000  Level Jacksonville Center
Thu 07:48:28 PM 31.2122 -82.1347 360° North 419 482 31,000  Level Jacksonville Center
Thu 07:49:28 PM 31.3311 -82.1361 359° North 419 482 31,000  Level Jacksonville Center
Thu 07:50:28 PM 31.4522 -82.1375 359° North 419 482 31,000  Level Jacksonville Center
Thu 07:51:28 PM 31.5733 -82.1414 358° North 419 482 31,000  Level Jacksonville Center
Thu 07:52:28 PM 31.6925 -82.1381 North 419 482 31,000  Level Jacksonville Center
Thu 07:53:28 PM 31.8239 -82.1394 359° North 419 482 31,000  Level Jacksonville Center
Thu 07:54:28 PM 31.9450 -82.1433 358° North 419 482 31,000  Level Jacksonville Center
Thu 07:56:29 PM 32.1953 -82.1442 360° North 437 503 31,000  Level Atlanta Center
Thu 07:57:29 PM 32.2978 -82.1444 360° North 430 495 31,000  Level Atlanta Center
Thu 07:58:29 PM 32.4189 -82.1467 359° North 430 495 31,000  Level Atlanta Center
Thu 07:59:29 PM 32.5378 -82.1492 359° North 425 489 31,000  Level Atlanta Center
Thu 08:00:29 PM 32.6589 -82.1464 North 425 489 31,000 -100 Level Atlanta Center
Thu 08:01:29 PM 32.7800 -82.1489 359° North 425 489 30,800 -550 Descending Atlanta Center
Thu 08:02:29 PM 32.9011 -82.1511 359° North 425 489 29,900 -950 Descending Atlanta Center
Thu 08:03:29 PM 33.0178 -82.1536 359° North 425 489 28,900 -1,100 Descending Atlanta Center
Thu 08:04:29 PM 33.1494 -82.1556 359° North 420 483 27,700 -1,050 Descending Atlanta Center
Thu 08:05:29 PM 33.2622 -82.1558 360° North 420 483 26,800 -900 Descending Atlanta Center
Thu 08:06:29 PM 33.3708 -82.1583 359° North 405 466 25,900 -950 Descending Atlanta Center
Thu 08:07:29 PM 33.4814 -82.1608 359° North 393 452 24,900 -950 Descending Atlanta Center
Thu 08:08:29 PM 33.5900 -82.1611 360° North 393 452 24,000 -450 Descending Atlanta Center
Thu 08:09:29 PM 33.6986 -82.1611 360° North 388 447 24,000  Level Atlanta Center
Thu 08:10:29 PM 33.8092 -82.1611 360° North 383 441 24,000  Level Atlanta Center
Thu 08:11:29 PM 33.9175 -82.1589 North 383 441 24,000  Level Atlanta Center
Thu 08:12:29 PM 34.0158 -82.1592 360° North 383 441 24,000  Level Atlanta Center
Thu 08:13:29 PM 34.1242 -82.1567 North 383 441 24,000 -1,250 Level Atlanta Center
Thu 08:14:29 PM 34.2306 -82.1519 North 383 441 21,500 -2,150 Descending Atlanta Center
Thu 08:15:29 PM 34.3211 -82.0644 39° Northeast 375 432 19,700 -1,650 Descending Atlanta Center
Thu 08:16:29 PM 34.4008 -81.9669 45° Northeast 380 437 18,200 -1,350 Descending Atlanta Center
Thu 08:17:29 PM 34.4764 -81.8667 48° Northeast 385 443 17,000 -1,429 Descending Atlanta Center
Thu 08:18:14 PM 34.5439 -81.7894 43° Northeast 387 445 15,700 -1,400 Descending Atlanta Center
Thu 08:18:29 PM 34.5497 -81.7767 61° Northeast 385 443 15,600 -1,256 Descending Atlanta Center
Thu 08:18:57 PM 34.5925 -81.7225 46° Northeast 377 434 14,800 -1,400 Descending Atlanta Center
Thu 08:19:29 PM 34.6211 -81.6839 48° Northeast 379 436 14,200 -1,418 Descending Atlanta Center
Thu 08:19:52 PM 34.6578 -81.6397 45° Northeast 370 426 13,500 -1,500 Descending Atlanta Center
Thu 08:20:29 PM 34.7006 -81.5906 43° Northeast 369 425 12,700 -1,377 Descending Atlanta Center
Thu 08:20:53 PM 34.7269 -81.5519 50° Northeast 366 421 12,100 -700 Descending Atlanta Center
Thu 08:21:29 PM 34.7697 -81.5000 45° Northeast 362 417 12,000 -100 Descending Atlanta Center
Thu 08:21:53 PM 34.7981 -81.4614 48° Northeast 364 419 12,000 -400 Level Atlanta Center
Thu 08:22:29 PM 34.8389 -81.4094 46° Northeast 357 411 11,600 -1,279 Descending Atlanta Center
Thu 08:22:54 PM 34.8672 -81.3731 46° Northeast 363 418 10,700 -1,500 Descending Atlanta Center
Thu 08:23:29 PM 34.9078 -81.3211 46° Northeast 352 405 10,100 -689 Descending Atlanta Center
Thu 08:23:55 PM 34.9403 -81.2769 48° Northeast 354 407 10,000 -100 Descending Atlanta Center
Thu 08:24:29 PM 34.9747 -81.2353 45° Northeast 352 405 10,000 -319 Level Atlanta Center
Thu 08:25:29 PM 35.0375 -81.1519 47° Northeast 344 396 9,500 -682 Descending Atlanta Center
Thu 08:25:57 PM 35.0639 -81.1156 48° Northeast 293 337 9,000 -500 Descending Atlanta Center
Thu 08:26:29 PM 35.0942 -81.0814 43° Northeast 303 349 9,000  Level Atlanta Center
Thu 08:27:29 PM 35.1689 -81.0661 North 263 303 9,000 -67 Level Atlanta Center
Thu 08:27:58 PM 35.2025 -81.0700 355° North 267 307 8,900 -857 Descending Atlanta Center
Thu 08:28:53 PM 35.2694 -81.0728 358° North 235 270 7,800 -1,672 Descending Atlanta Center
Thu 08:30:00 PM 35.3364 -81.0803 355° North 226 260 5,500 -1,313 Descending Atlanta Center
Thu 08:31:01 PM 35.3747 -81.0333 45° Northeast 209 241 5,000 -787 Descending Atlanta Center
Thu 08:32:02 PM 35.3628 -80.9750 104° East 193 222 3,900 -1,082 Descending Atlanta Center

Login

Don't have an account? Register now (free) for customized features, flight alerts, and more!